Data for 04/18/2006

Time Sea-Level Adjusted Pressure Absolute Pressure Temperature Relative Humidity Dew Point   
(mb) (inHg) (mb) (inHg) (C) (F) (%) (C) (F)
00:05 1020 30.12 849 25.07 0.9 33.6 80 -2.1 28.1
00:10 1020 30.12 849 25.07 0.8 33.4 81 -2.2 28.1
00:15 1020 30.12 849 25.07 0.8 33.4 82 -2 28.5
00:20 1020 30.12 849 25.07 0.8 33.4 86 -1.4 29.5
00:25 1020 30.12 849 25.07 0.2 32.4 90 -1.2 29.9
00:30 1020 30.12 849 25.07 0 32 92 -1.2 29.9
00:35 1020 30.12 849 25.07 -0.2 31.7 94 -1.1 30.1
00:40 1020 30.12 849 25.07 -0.2 31.6 94 -1 30.1
00:45 1020 30.12 849 25.07 -0.3 31.5 95 -1 30.2
00:50 1020 30.12 849 25.07 -0.2 31.6 94 -1 30.1
00:55 1020 30.12 849 25.07 -0.3 31.5 94 -1.2 29.9
01:00 1020 30.12 849 25.07 -0.3 31.5 94 -1.2 29.9
01:05 1020 30.12 849 25.07 -0.3 31.5 94 -1.1 30
01:10 1020 30.12 849 25.07 -0.4 31.4 94 -1.2 29.9
01:15 1020 30.12 849 25.07 -0.3 31.5 94 -1.1 30
01:20 1020 30.12 849 25.07 -0.2 31.6 94 -1.1 30
01:25 1020 30.12 850 25.1 -0.2 31.6 93 -1.2 29.9
01:30 1020 30.12 850 25.1 -0.2 31.6 94 -1.1 30
01:35 1021 30.15 850 25.1 -0.3 31.5 94 -1.1 30
01:40 1021 30.15 850 25.1 -0.4 31.3 94 -1.2 29.9
01:45 1021 30.15 850 25.1 -0.5 31.1 95 -1.2 29.9
01:50 1021 30.15 850 25.1 -0.4 31.2 95 -1.1 30.1
01:55 1021 30.15 850 25.1 -0.4 31.2 96 -1 30.2
02:00 1021 30.15 850 25.1 -0.6 30.9 96 -1.2 29.9
02:05 1021 30.15 850 25.1 -1 30.3 97 -1.3 29.6
02:10 1021 30.15 850 25.1 -1.1 30.1 98 -1.4 29.5
02:15 1021 30.15 850 25.1 -0.9 30.3 98 -1.2 29.8
02:20 1021 30.15 850 25.1 -0.8 30.5 98 -1.2 29.9
02:25 1021 30.15 850 25.1 -0.9 30.4 97 -1.2 29.8
02:30 1021 30.15 850 25.1 -0.7 30.7 97 -1.1 30
02:35 1021 30.15 850 25.1 -0.8 30.6 97 -1.2 29.8
02:40 1021 30.15 850 25.1 -0.7 30.7 97 -1.1 30
02:45 1021 30.15 850 25.1 -0.8 30.5 96 -1.3 29.6
02:50 1021 30.15 850 25.1 -0.8 30.6 96 -1.4 29.4
02:55 1021 30.15 850 25.1 -0.7 30.7 96 -1.3 29.6
03:00 1021 30.15 850 25.1 -0.6 30.9 95 -1.3 29.6
03:05 1021 30.15 850 25.1 -0.4 31.3 93 -1.3 29.6
03:10 1021 30.15 850 25.1 -0.4 31.3 92 -1.5 29.3
03:15 1021 30.15 850 25.1 -0.4 31.3 90 -1.9 28.6
03:20 1021 30.15 850 25.1 -0.5 31.1 88 -2.3 27.9
03:25 1021 30.15 850 25.1 -0.5 31 88 -2.3 27.9
03:30 1021 30.15 850 25.1 -0.5 31.1 85 -2.8 27
03:35 1021 30.15 850 25.1 -0.5 31 84 -2.9 26.7
03:40 1021 30.15 850 25.1 -0.6 30.9 84 -3.1 26.5
03:45 1021 30.15 850 25.1 -0.7 30.8 82 -3.3 26
03:50 1021 30.15 850 25.1 -0.7 30.8 82 -3.4 25.9
03:55 1021 30.15 850 25.1 -0.7 30.8 80 -3.6 25.5
04:00 1021 30.15 850 25.1 -0.7 30.7 80 -3.7 25.4
04:05 1021 30.15 850 25.1 -0.7 30.7 79 -3.9 25
04:10 1021 30.15 851 25.13 -0.8 30.6 80 -3.9 25
04:15 1021 30.15 851 25.13 -0.8 30.5 79 -4 24.8
04:20 1021 30.15 851 25.13 -0.8 30.5 80 -3.9 25
04:25 1021 30.15 851 25.13 -0.9 30.4 79 -4.1 24.6
04:30 1021 30.15 851 25.13 -1 30.3 79 -4.2 24.4
04:35 1022 30.18 851 25.13 -1 30.2 79 -4.2 24.4
04:40 1022 30.18 851 25.13 -1.1 30.1 78 -4.4 24
04:45 1022 30.18 851 25.13 -1 30.2 79 -4.3 24.3
04:50 1022 30.18 851 25.13 -1.1 30 78 -4.4 24
04:55 1022 30.18 851 25.13 -1.1 30.1 78 -4.4 24.1
05:00 1022 30.18 851 25.13 -1.1 30 79 -4.4 24.2
05:05 1022 30.18 851 25.13 -1 30.1 78 -4.4 24.1
05:10 1022 30.18 851 25.13 -0.9 30.3 78 -4.3 24.2
05:15 1022 30.18 851 25.13 -0.8 30.5 78 -4.3 24.3
05:20 1022 30.18 851 25.13 -0.8 30.5 77 -4.3 24.3
05:25 1022 30.18 851 25.13 -0.8 30.6 77 -4.4 24.1
05:30 1022 30.18 851 25.13 -0.9 30.4 78 -4.3 24.2
05:35 1022 30.18 851 25.13 -0.9 30.3 78 -4.3 24.2
05:40 1022 30.18 851 25.13 -0.9 30.3 78 -4.3 24.3
05:45 1022 30.18 851 25.13 -0.9 30.4 77 -4.4 24
05:50 1022 30.18 851 25.13 -1 30.3 77 -4.5 23.8
05:55 1022 30.18 851 25.13 -1 30.2 78 -4.4 24.1
06:00 1022 30.18 851 25.13 -1 30.2 77 -4.5 24
06:05 1022 30.18 851 25.13 -1 30.2 77 -4.5 23.9
06:10 1022 30.18 851 25.13 -1 30.2 77 -4.5 23.9
06:15 1022 30.18 851 25.13 -1 30.1 77 -4.5 23.9
06:20 1022 30.18 851 25.13 -1.1 30.1 76 -4.7 23.5
06:25 1022 30.18 851 25.13 -1.1 29.9 76 -4.9 23.2
06:30 1022 30.18 851 25.13 -1.2 29.9 75 -5 23
06:35 1022 30.18 851 25.13 -1.1 30 75 -5 23.1
06:40 1022 30.18 852 25.16 -1.1 30 74 -5.1 22.7
06:45 1022 30.18 852 25.16 -1.1 30.1 73 -5.2 22.6
06:50 1023 30.21 852 25.16 -1 30.3 74 -5 23
06:55 1023 30.21 852 25.16 -0.9 30.4 74 -5 23
07:00 1023 30.21 852 25.16 -1 30.3 74 -5.1 22.8
07:05 1023 30.21 852 25.16 -1.1 30.1 74 -5.1 22.8
07:10 1023 30.21 852 25.16 -0.9 30.3 73 -5.2 22.7
07:15 1023 30.21 852 25.16 -0.9 30.4 73 -5.2 22.7
07:20 1023 30.21 852 25.16 -0.8 30.5 72 -5.3 22.5
07:25 1023 30.21 852 25.16 -0.8 30.5 72 -5.3 22.4
07:30 1023 30.21 852 25.16 -0.7 30.8 73 -4.9 23.1
07:35 1023 30.21 852 25.16 -0.8 30.6 72 -5.2 22.7
07:40 1023 30.21 852 25.16 -0.9 30.4 72 -5.3 22.5
07:45 1023 30.21 852 25.16 -1 30.2 73 -5.2 22.6
07:50 1023 30.21 852 25.16 -1.1 30 74 -5.1 22.9
07:55 1023 30.21 852 25.16 -1.1 30 75 -5 23
08:00 1023 30.21 852 25.16 -1 30.2 74 -5.1 22.8
08:05 1023 30.21 853 25.19 -0.5 31.2 70 -5.3 22.4
08:10 1023 30.21 853 25.19 -0.2 31.7 70 -5.1 22.9
08:15 1023 30.21 853 25.19 -0.7 30.8 69 -5.6 22
08:20 1024 30.24 853 25.19 -1 30.1 72 -5.5 22.1
08:25 1024 30.24 853 25.19 -0.9 30.4 71 -5.5 22.1
08:30 1024 30.24 853 25.19 -0.9 30.3 72 -5.3 22.5
08:35 1024 30.24 853 25.19 -0.9 30.3 72 -5.3 22.4
08:40 1024 30.24 853 25.19 -1.1 30 72 -5.5 22.1
08:45 1024 30.24 853 25.19 -1 30.1 73 -5.2 22.6
08:50 1024 30.24 853 25.19 -0.4 31.2 70 -5.3 22.4
08:55 1024 30.24 853 25.19 0.2 32.3 68 -5.1 22.9
09:00 1024 30.24 853 25.19 1.3 34.4 63 -5 23
09:05 1024 30.24 853 25.19 1.3 34.4 64 -4.8 23.4
09:10 1024 30.24 853 25.19 0.9 33.5 65 -5.1 22.8
09:15 1024 30.24 853 25.19 0.8 33.4 64 -5.2 22.6
09:20 1024 30.24 853 25.19 1.2 34.1 64 -4.9 23.1
09:25 1024 30.24 853 25.19 1.4 34.5 64 -4.7 23.6
09:30 1024 30.24 853 25.19 1.6 34.9 63 -4.7 23.5
09:35 1024 30.24 853 25.19 2.1 35.7 61 -4.6 23.6
09:40 1024 30.24 853 25.19 2.2 35.9 62 -4.4 24.1
09:45 1024 30.24 854 25.22 2.4 36.2 61 -4.5 24
09:50 1024 30.24 854 25.22 2.4 36.2 62 -4.2 24.4
09:55 1024 30.24 854 25.22 2.4 36.3 63 -4 24.8
10:00 1024 30.24 854 25.22 2.7 36.9 59 -4.5 24
10:05 1024 30.24 854 25.22 2.6 36.7 60 -4.4 24
10:10 1024 30.24 854 25.22 2.7 36.9 55 -5.5 22.1
10:15 1025 30.27 854 25.22 2.3 36.2 56 -5.7 21.8
10:20 1025 30.27 854 25.22 2.5 36.5 55 -5.6 22
10:25 1025 30.27 854 25.22 2.3 36.2 54 -6 21.2
10:30 1025 30.27 854 25.22 2.1 35.8 57 -5.5 22.2
10:35 1025 30.27 854 25.22 2.5 36.5 56 -5.4 22.4
10:40 1025 30.27 854 25.22 2.7 36.8 55 -5.5 22
10:45 1025 30.27 854 25.22 2.8 37 57 -4.9 23.1
10:50 1025 30.27 854 25.22 2.9 37.2 57 -4.9 23.2
10:55 1025 30.27 854 25.22 3.2 37.7 58 -4.4 24.1
11:00 1025 30.27 854 25.22 3.4 38.1 56 -4.5 24
11:05 1025 30.27 854 25.22 3.2 37.7 56 -4.8 23.3
11:10 1025 30.27 854 25.22 2.8 37.1 57 -4.9 23.1
11:15 1025 30.27 854 25.22 3.1 37.6 55 -5 22.9
11:20 1025 30.27 854 25.22 2.7 36.9 59 -4.5 23.8
11:25 1025 30.27 854 25.22 3.2 37.8 55 -4.9 23.2
11:30 1025 30.27 854 25.22 3.5 38.3 53 -5.1 22.8
11:35 1025 30.27 854 25.22 3.4 38.2 53 -5.2 22.7
11:40 1025 30.27 854 25.22 3.5 38.4 51 -5.7 21.8
11:45 1025 30.27 854 25.22 3.6 38.4 54 -4.8 23.3
11:50 1025 30.27 854 25.22 2.4 36.3 58 -5 23
11:55 1025 30.27 854 25.22 2.5 36.5 56 -5.3 22.4
12:00 1025 30.27 854 25.22 1.9 35.4 64 -4.2 24.4
12:05 1025 30.27 854 25.22 1.8 35.2 61 -4.9 23.2
12:10 1025 30.27 854 25.22 2.3 36.1 61 -4.5 24
12:15 1025 30.27 854 25.22 2.6 36.7 63 -3.7 25.3
12:20 1024 30.24 854 25.22 2.6 36.7 61 -4.1 24.6
12:25 1024 30.24 854 25.22 1.8 35.3 64 -4.2 24.4
12:30 1024 30.24 854 25.22 1.6 34.9 63 -4.6 23.6
12:35 1024 30.24 854 25.22 1.5 34.7 69 -3.6 25.5
12:40 1025 30.27 854 25.22 1.6 34.9 67 -3.9 24.9
12:45 1025 30.27 854 25.22 1.6 34.9 66 -4 24.8
12:50 1024 30.24 854 25.22 1.3 34.3 74 -2.9 26.8
12:55 1025 30.27 854 25.22 0.8 33.5 73 -3.5 25.7
13:00 1024 30.24 854 25.22 0.9 33.7 70 -3.9 25
13:05 1024 30.24 854 25.22 1.5 34.7 68 -3.9 25.1
13:10 1024 30.24 854 25.22 2.4 36.4 66 -3.2 26.3
13:15 1024 30.24 854 25.22 2.4 36.2 66 -3.4 25.8
13:20 1024 30.24 853 25.19 2.3 36.2 61 -4.4 24.1
13:25 1024 30.24 853 25.19 2.5 36.5 60 -4.5 23.9
13:30 1024 30.24 853 25.19 2.6 36.6 66 -3.2 26.3
13:35 1024 30.24 853 25.19 2.1 35.8 65 -3.7 25.3
13:40 1024 30.24 853 25.19 2.1 35.8 67 -3.4 25.9
13:45 1024 30.24 853 25.19 2.4 36.3 69 -2.7 27.2
13:50 1024 30.24 853 25.19 2.7 36.9 65 -3.2 26.2
13:55 1024 30.24 853 25.19 2.6 36.6 61 -4.1 24.6
14:00 1024 30.24 853 25.19 2.6 36.6 62 -4.1 24.7
14:05 1024 30.24 853 25.19 2.8 37 62 -3.8 25.2
14:10 1024 30.24 853 25.19 2.5 36.5 65 -3.3 26
14:15 1024 30.24 853 25.19 2 35.7 69 -3.1 26.4
14:20 1024 30.24 853 25.19 1.2 34.1 76 -2.5 27.4
14:25 1024 30.24 853 25.19 0.7 33.2 81 -2.2 28
14:30 1024 30.24 853 25.19 0.4 32.7 82 -2.4 27.8
14:35 1024 30.24 853 25.19 0.7 33.2 77 -2.8 26.9
14:40 1024 30.24 853 25.19 1 33.8 79 -2.3 27.9
14:45 1024 30.24 853 25.19 1.3 34.3 71 -3.4 25.8
14:50 1024 30.24 853 25.19 1.4 34.6 74 -2.7 27.2
14:55 1024 30.24 853 25.19 2.1 35.8 65 -3.8 25.2
15:00 1024 30.24 853 25.19 2.4 36.4 65 -3.4 25.9
15:05 1024 30.24 853 25.19 2.3 36.1 65 -3.6 25.5
15:10 1024 30.24 853 25.19 2.6 36.6 58 -5 23.1
15:15 1024 30.24 853 25.19 2.7 36.8 56 -5.1 22.7
15:20 1024 30.24 853 25.19 3 37.4 54 -5.3 22.5
15:25 1023 30.21 853 25.19 3.5 38.4 57 -4.1 24.6
15:30 1023 30.21 853 25.19 3.8 38.8 54 -4.8 23.4
15:35 1023 30.21 853 25.19 3.7 38.7 56 -4.3 24.3
15:40 1023 30.21 853 25.19 4.1 39.4 53 -4.7 23.5
15:45 1023 30.21 853 25.19 4.1 39.4 49 -5.7 21.8
15:50 1023 30.21 853 25.19 3.8 38.8 52 -5.3 22.5
15:55 1023 30.21 853 25.19 4.3 39.8 50 -5.1 22.9
16:00 1023 30.21 853 25.19 4.4 39.9 49 -5.3 22.5
16:05 1023 30.21 853 25.19 4.4 39.8 49 -5.4 22.4
16:10 1023 30.21 852 25.16 4.4 40 51 -4.9 23.1
16:15 1023 30.21 852 25.16 4.3 39.8 54 -4.3 24.3
16:20 1023 30.21 852 25.16 4.2 39.5 52 -4.8 23.4
16:25 1023 30.21 852 25.16 4.4 39.9 48 -5.6 21.9
16:30 1023 30.21 852 25.16 4.2 39.6 51 -4.9 23.2
16:35 1023 30.21 852 25.16 4.1 39.4 53 -4.5 23.9
16:40 1023 30.21 852 25.16 4.8 40.6 49 -5.1 22.9
16:45 1023 30.21 852 25.16 4 39.3 53 -4.6 23.7
16:50 1023 30.21 852 25.16 4.5 40.1 50 -5 23.1
16:55 1023 30.21 852 25.16 4.5 40.1 48 -5.5 22.1
17:00 1023 30.21 852 25.16 4.6 40.2 49 -5.3 22.4
17:05 1023 30.21 852 25.16 4.7 40.5 51 -4.6 23.7
17:10 1023 30.21 852 25.16 4.5 40.1 51 -4.8 23.4
17:15 1023 30.21 852 25.16 4.1 39.4 44 -7 19.4
17:20 1023 30.21 852 25.16 4.2 39.6 46 -6.4 20.5
17:25 1023 30.21 852 25.16 4.2 39.6 49 -5.5 22.1
17:30 1023 30.21 852 25.16 4.7 40.5 44 -6.4 20.5
17:35 1023 30.21 852 25.16 5.1 41.1 46 -5.6 22
17:40 1023 30.21 852 25.16 5.3 41.5 47 -5 23
17:45 1023 30.21 852 25.16 5.1 41.3 46 -5.6 21.9
17:50 1023 30.21 852 25.16 4.9 40.8 47 -5.6 21.9
17:55 1023 30.21 852 25.16 4.7 40.4 47 -5.7 21.8
18:00 1023 30.21 852 25.16 5 40.9 41 -7.4 18.8
18:05 1023 30.21 852 25.16 5.7 42.2 37 -8.1 17.5
18:10 1023 30.21 852 25.16 6.3 43.4 35 -8.1 17.5
18:15 1023 30.21 852 25.16 6.1 42.9 48 -4.1 24.5
18:20 1023 30.21 852 25.16 4.9 40.8 48 -5.2 22.7
18:25 1023 30.21 852 25.16 4.4 39.9 47 -6 21.2
18:30 1023 30.21 852 25.16 4.2 39.5 49 -5.5 22.2
18:35 1023 30.21 852 25.16 4.4 39.8 49 -5.5 22.1
18:40 1023 30.21 852 25.16 4.3 39.7 49 -5.4 22.4
18:45 1023 30.21 852 25.16 4.1 39.4 51 -5.2 22.6
18:50 1023 30.21 852 25.16 4.2 39.5 48 -5.8 21.6
18:55 1023 30.21 852 25.16 4.1 39.4 50 -5.4 22.2
19:00 1023 30.21 852 25.16 3.9 39 49 -5.8 21.6
19:05 1023 30.21 852 25.16 4.2 39.5 47 -6.1 21
19:10 1023 30.21 852 25.16 4.6 40.3 42 -7.3 18.8
19:15 1023 30.21 852 25.16 5 41 43 -6.4 20.5
19:20 1023 30.21 852 25.16 5 41.1 42 -6.7 19.9
19:25 1023 30.21 852 25.16 4.7 40.4 45 -6.3 20.7
19:30 1023 30.21 852 25.16 4.5 40.1 47 -6 21.3
19:35 1023 30.21 852 25.16 4.1 39.3 47 -6.1 21
19:40 1023 30.21 852 25.16 3.8 38.8 49 -6 21.3
19:45 1023 30.21 852 25.16 3.6 38.5 48 -6.3 20.7
19:50 1023 30.21 852 25.16 3.8 38.9 47 -6.6 20.2
19:55 1023 30.21 852 25.16 3.9 38.9 47 -6.5 20.3
20:00 1023 30.21 852 25.16 3.5 38.3 50 -6.1 21.1
20:05 1023 30.21 852 25.16 3.3 38 50 -6.1 21.1
20:10 1023 30.21 852 25.16 3.5 38.2 50 -5.9 21.4
20:15 1023 30.21 852 25.16 3.4 38.1 53 -5.4 22.3
20:20 1023 30.21 852 25.16 3.3 38 54 -5.1 22.9
20:25 1023 30.21 852 25.16 3.1 37.6 54 -5.2 22.6
20:30 1023 30.21 852 25.16 3.1 37.6 55 -5 23
20:35 1023 30.21 852 25.16 3.1 37.7 55 -4.9 23.1
20:40 1023 30.21 852 25.16 3.1 37.7 55 -5 23.1
20:45 1023 30.21 852 25.16 3.1 37.6 56 -4.9 23.2
20:50 1023 30.21 852 25.16 2.9 37.3 56 -4.9 23.2
20:55 1023 30.21 852 25.16 2.8 37.1 57 -4.9 23.1
21:00 1023 30.21 852 25.16 2.7 36.8 57 -5 23.1
21:05 1023 30.21 852 25.16 2.6 36.8 57 -5 23
21:10 1023 30.21 852 25.16 2.5 36.5 58 -4.9 23.2
21:15 1023 30.21 852 25.16 2.1 35.8 58 -5.3 22.4
21:20 1023 30.21 852 25.16 2.1 35.7 59 -5.2 22.7
21:25 1023 30.21 852 25.16 2.2 36 58 -5.1 22.7
21:30 1023 30.21 852 25.16 2.2 35.9 60 -4.9 23.2
21:35 1023 30.21 852 25.16 1.8 35.3 59 -5.3 22.5
21:40 1023 30.21 852 25.16 1.9 35.4 59 -5.4 22.4
21:45 1023 30.21 852 25.16 1.9 35.5 59 -5.2 22.6
21:50 1023 30.21 852 25.16 1.7 35 59 -5.5 22.1
21:55 1023 30.21 852 25.16 1.5 34.7 61 -5.2 22.6
22:00 1023 30.21 852 25.16 1.2 34.1 63 -5.1 22.7
22:05 1023 30.21 852 25.16 1.1 33.9 65 -4.9 23.3
22:10 1023 30.21 852 25.16 1 33.7 65 -4.9 23.2
22:15 1023 30.21 852 25.16 0.8 33.4 66 -4.9 23.1
22:20 1023 30.21 852 25.16 0.6 33 67 -4.8 23.4
22:25 1023 30.21 852 25.16 0.5 33 68 -4.7 23.5
22:30 1023 30.21 852 25.16 0.5 32.9 70 -4.4 24
22:35 1023 30.21 852 25.16 0.4 32.8 69 -4.7 23.6
22:40 1023 30.21 852 25.16 0.3 32.5 71 -4.4 24.1
22:45 1023 30.21 852 25.16 0.2 32.3 72 -4.4 24.1
22:50 1023 30.21 852 25.16 0.1 32.2 71 -4.6 23.7
22:55 1023 30.21 852 25.16 0.2 32.3 70 -4.6 23.7
23:00 1023 30.21 852 25.16 0.1 32.2 68 -5 23
23:05 1023 30.21 852 25.16 0.1 32.2 69 -5 23.1
23:10 1023 30.21 852 25.16 -0 32 71 -4.6 23.6
23:15 1023 30.21 852 25.16 -0.1 31.9 71 -4.8 23.4
23:20 1023 30.21 852 25.16 0 32 67 -5.3 22.4
23:25 1023 30.21 852 25.16 0 32 68 -5.3 22.5
23:30 1023 30.21 852 25.16 -0.1 31.9 68 -5.3 22.4
23:35 1023 30.21 852 25.16 -0.1 31.9 68 -5.3 22.5
23:40 1023 30.21 852 25.16 -0.2 31.6 68 -5.4 22.4
23:45 1023 30.21 852 25.16 -0.3 31.5 68 -5.5 22
23:50 1023 30.21 852 25.16 -0.3 31.5 68 -5.5 22.1
23:55 1023 30.21 852 25.16 -0.3 31.4 66 -5.8 21.5
24:00 1023 30.21 852 25.16 -0.1 31.7 64 -6.2 20.8